Time;durP1;ratioP1;P1;durP2;ratioP2;P2;SDS_P1;SDS_P2;PMS_P1;PMS_P2;Temp;Humidity;BMP_temperature;BMP_pressure;BME280_temperature;BME280_humidity;BME280_pressure;Samples;Min_cycle;Max_cycle;Signal;HPM_P1;HPM_P2
2021/08/23 00:00:28;;;;;;;;;;;;;;;24.58;59.07;100299.06;2056734;28;19921;-61
2021/08/23 00:01:29;;;;;;;;;;;;;;;24.57;59.05;100297.34;2063736;28;19928;-61
2021/08/23 00:02:29;;;;;;;;;;;;;;;24.58;59.04;100308.19;2065298;28;19914;-61
2021/08/23 00:03:29;;;;;;;;;;;;;;;24.58;59.09;100304.59;2057708;28;19999;-61
2021/08/23 00:04:31;;;;;;;;;;;;;;;24.58;59.11;100304.59;2059722;28;20421;-61
2021/08/23 00:05:34;;;;;;;;;;;;;;;24.57;59.05;100303.75;2056407;28;19941;-61
2021/08/23 00:06:34;;;;;;;;;;;;;;;24.58;59.08;100301.84;2057546;28;19922;-61
2021/08/23 00:07:35;;;;;;;;;;;;;;;24.57;59.06;100311.13;2060006;28;19975;-62
2021/08/23 00:08:35;;;;;;;;;;;;;;;24.57;59.02;100308.38;2055541;28;19928;-61
2021/08/23 00:09:35;;;;;;;;;;;;;;;24.57;59.12;100309.25;2056233;28;19928;-61
2021/08/23 00:10:36;;;;;;;;;;;;;;;24.57;58.98;100305.59;2072637;28;19919;-61
2021/08/23 00:11:36;;;;;;;;;;;;;;;24.56;59.28;100302.00;2071045;28;20403;-62
2021/08/23 00:12:36;;;;;;;;;;;;;;;24.55;59.05;100305.81;2054676;28;20197;-61
2021/08/23 00:13:37;;;;;;;;;;;;;;;24.57;59.08;100305.59;2058767;28;20356;-61
2021/08/23 00:14:37;;;;;;;;;;;;;;;24.56;59.06;100301.16;2064492;28;19927;-61
2021/08/23 00:15:39;;;;;;;;;;;;;;;24.56;59.09;100307.50;2064143;28;19913;-61
2021/08/23 00:16:39;;;;;;;;;;;;;;;24.56;59.08;100306.66;2060996;28;19921;-61
2021/08/23 00:17:39;;;;;;;;;;;;;;;24.56;59.01;100301.16;2055323;28;19994;-61
2021/08/23 00:18:40;;;;;;;;;;;;;;;24.56;59.19;100301.16;2056808;28;19929;-61
2021/08/23 00:19:40;;;;;;;;;;;;;;;24.55;59.19;100299.44;2057206;28;19922;-62
2021/08/23 00:20:43;;;;;;;;;;;;;;;24.55;59.30;100294.78;2058462;28;20333;-61
2021/08/23 00:21:44;;;;;;;;;;;;;;;24.55;59.04;100291.19;2056584;28;20369;-61
2021/08/23 00:22:48;;;;;;;;;;;;;;;24.54;59.21;100295.81;2056208;28;19917;-61
2021/08/23 00:23:54;;;;;;;;;;;;;;;24.54;59.22;100297.72;2051826;28;19910;-61
2021/08/23 00:24:55;;;;;;;;;;;;;;;24.55;59.17;100299.44;2058079;28;19972;-61
2021/08/23 00:25:55;;;;;;;;;;;;;;;24.54;59.06;100298.56;2053074;28;20086;-61
2021/08/23 00:26:56;;;;;;;;;;;;;;;24.54;59.08;100301.31;2058526;28;19917;-61
2021/08/23 00:27:57;;;;;;;;;;;;;;;24.55;59.27;100293.94;2058661;28;19921;-61
2021/08/23 00:28:57;;;;;;;;;;;;;;;24.55;59.11;100294.78;2057920;28;19928;-61
2021/08/23 00:29:57;;;;;;;;;;;;;;;24.55;59.18;100302.19;2056156;28;19964;-61
2021/08/23 00:30:58;;;;;;;;;;;;;;;24.55;59.10;100304.97;2059501;28;20264;-61
2021/08/23 00:31:58;;;;;;;;;;;;;;;24.54;59.24;100305.97;2056552;28;19940;-62
2021/08/23 00:32:59;;;;;;;;;;;;;;;24.54;59.16;100303.22;2054963;28;19917;-61
2021/08/23 00:33:59;;;;;;;;;;;;;;;24.53;59.13;100304.28;2052153;28;20000;-61
2021/08/23 00:35:00;;;;;;;;;;;;;;;24.54;59.19;100305.97;2059615;28;19914;-61
2021/08/23 00:36:00;;;;;;;;;;;;;;;24.54;59.25;100300.47;2052537;28;21482;-62
2021/08/23 00:37:01;;;;;;;;;;;;;;;24.54;59.13;100297.72;2051364;28;20703;-61
2021/08/23 00:38:02;;;;;;;;;;;;;;;24.52;59.28;100294.28;2061752;28;19997;-61
2021/08/23 00:39:03;;;;;;;;;;;;;;;24.53;59.12;100301.53;2059800;28;19922;-61
2021/08/23 00:40:04;;;;;;;;;;;;;;;24.51;59.22;100298.94;2054165;28;20020;-61
2021/08/23 00:41:04;;;;;;;;;;;;;;;24.52;59.28;100294.28;2057664;28;19917;-61
2021/08/23 00:42:05;;;;;;;;;;;;;;;24.51;59.37;100292.56;2072659;28;19976;-61
2021/08/23 00:43:06;;;;;;;;;;;;;;;24.52;59.20;100294.28;2072609;28;19945;-61
2021/08/23 00:44:07;;;;;;;;;;;;;;;24.51;59.30;100295.31;2063300;28;19917;-61
2021/08/23 00:45:07;;;;;;;;;;;;;;;24.52;59.20;100294.28;2065572;28;19921;-61
2021/08/23 00:46:08;;;;;;;;;;;;;;;24.50;59.31;100294.47;2056515;28;20557;-61
2021/08/23 00:47:08;;;;;;;;;;;;;;;24.51;59.27;100287.06;2067627;28;19916;-61
2021/08/23 00:48:09;;;;;;;;;;;;;;;24.52;59.31;100291.53;2068748;28;19928;-61
2021/08/23 00:49:09;;;;;;;;;;;;;;;24.51;59.19;100292.56;2055795;28;20606;-61
2021/08/23 00:50:10;;;;;;;;;;;;;;;24.50;59.25;100288.09;2057846;28;19957;-61
2021/08/23 00:51:10;;;;;;;;;;;;;;;24.50;59.33;100291.72;2053113;28;19917;-61
2021/08/23 00:52:11;;;;;;;;;;;;;;;24.51;59.16;100287.06;2057664;28;19922;-61
2021/08/23 00:53:11;;;;;;;;;;;;;;;24.50;59.25;100285.31;2058229;28;19955;-61
2021/08/23 00:54:12;;;;;;;;;;;;;;;24.50;59.25;100288.09;2057550;28;20672;-61
2021/08/23 00:55:12;;;;;;;;;;;;;;;24.51;59.23;100287.06;2056386;28;19917;-61
2021/08/23 00:56:13;;;;;;;;;;;;;;;24.50;59.27;100290.84;2054771;28;19921;-61
2021/08/23 00:57:13;;;;;;;;;;;;;;;24.50;59.32;100285.31;2058673;28;19921;-61
2021/08/23 00:58:15;;;;;;;;;;;;;;;24.50;59.18;100290.84;2058253;28;19917;-61
2021/08/23 00:59:15;;;;;;;;;;;;;;;24.50;59.23;100285.31;2057199;28;19936;-61
2021/08/23 01:00:15;;;;;;;;;;;;;;;24.50;59.19;100286.22;2052380;28;20025;-61
2021/08/23 01:01:16;;;;;;;;;;;;;;;24.50;59.15;100286.22;2060006;28;20300;-61
2021/08/23 01:02:22;;;;;;;;;;;;;;;24.50;59.19;100285.31;2058462;28;19913;-61
2021/08/23 01:03:30;;;;;;;;;;;;;;;24.49;59.23;100283.63;2058717;28;19926;-61
2021/08/23 01:04:49;;;;;;;;;;;;;;;24.50;59.23;100279.81;2055000;28;19925;-61
2021/08/23 01:05:49;;;;;;;;;;;;;;;24.49;59.21;100289.13;2078958;28;19920;-62
2021/08/23 01:06:49;;;;;;;;;;;;;;;24.49;59.28;100278.13;2073541;28;20383;-62
2021/08/23 01:07:51;;;;;;;;;;;;;;;24.49;59.28;100278.97;2054648;28;19973;-61
2021/08/23 01:08:54;;;;;;;;;;;;;;;24.49;59.29;100283.63;2055420;28;19922;-62
2021/08/23 01:10:00;;;;;;;;;;;;;;;24.48;59.34;100276.41;2054559;28;19926;-62
2021/08/23 01:11:03;;;;;;;;;;;;;;;24.48;59.20;100279.16;2057553;28;19932;-61
2021/08/23 01:12:04;;;;;;;;;;;;;;;24.48;59.20;100281.91;2054221;28;19921;-61
2021/08/23 01:13:06;;;;;;;;;;;;;;;24.49;59.31;100278.13;2052120;28;20656;-62
2021/08/23 01:14:06;;;;;;;;;;;;;;;24.49;59.39;100278.13;2055498;28;19929;-62
2021/08/23 01:15:07;;;;;;;;;;;;;;;24.48;59.40;100273.66;2059416;28;19975;-62
2021/08/23 01:16:07;;;;;;;;;;;;;;;24.48;59.31;100280.00;2055983;28;19917;-62
2021/08/23 01:17:07;;;;;;;;;;;;;;;24.49;59.36;100283.63;2053160;28;19926;-62
2021/08/23 01:18:08;;;;;;;;;;;;;;;24.48;59.46;100276.41;2056633;28;20316;-62
2021/08/23 01:19:09;;;;;;;;;;;;;;;24.47;59.16;100270.00;2056639;28;19921;-61
2021/08/23 01:20:10;;;;;;;;;;;;;;;24.48;59.14;100279.16;2074970;28;19916;-62
2021/08/23 01:21:11;;;;;;;;;;;;;;;24.48;59.22;100270.91;2072098;28;19916;-62
2021/08/23 01:22:13;;;;;;;;;;;;;;;24.47;59.37;100270.00;2057361;28;20359;-61
2021/08/23 01:23:13;;;;;;;;;;;;;;;24.48;59.22;100265.38;2054100;28;19922;-62
2021/08/23 01:24:14;;;;;;;;;;;;;;;24.47;59.25;100264.50;2056369;28;20013;-62
2021/08/23 01:25:17;;;;;;;;;;;;;;;24.48;59.25;100265.38;2052640;28;19924;-62
2021/08/23 01:26:21;;;;;;;;;;;;;;;24.47;59.35;100264.50;2051390;28;19914;-62
2021/08/23 01:27:22;;;;;;;;;;;;;;;24.47;59.32;100267.25;2055312;28;19980;-61
2021/08/23 01:28:35;;;;;;;;;;;;;;;24.47;59.34;100261.75;2061683;28;20407;-62
2021/08/23 01:29:38;;;;;;;;;;;;;;;24.48;59.26;100270.91;2061006;28;20080;-62
2021/08/23 01:30:44;;;;;;;;;;;;;;;24.48;59.21;100265.38;2055499;28;20000;-62
2021/08/23 01:31:50;;;;;;;;;;;;;;;24.47;59.34;100263.66;2058492;28;19929;-61
2021/08/23 01:32:50;;;;;;;;;;;;;;;24.48;59.16;100265.38;2057605;28;20581;-61
2021/08/23 01:33:51;;;;;;;;;;;;;;;24.47;59.20;100263.66;2056416;28;20033;-62
2021/08/23 01:34:53;;;;;;;;;;;;;;;24.48;59.27;100268.13;2073113;28;19921;-61
2021/08/23 01:35:54;;;;;;;;;;;;;;;24.47;59.31;100269.16;2069427;28;20035;-61
2021/08/23 01:36:55;;;;;;;;;;;;;;;24.47;59.25;100270.00;2073052;28;20701;-62
2021/08/23 01:37:55;;;;;;;;;;;;;;;24.46;59.31;100262.81;2075642;28;20376;-61
2021/08/23 01:38:57;;;;;;;;;;;;;;;24.47;59.19;100269.16;2074427;28;19960;-62
2021/08/23 01:39:58;;;;;;;;;;;;;;;24.45;59.24;100263.81;2069693;28;19978;-61
2021/08/23 01:40:59;;;;;;;;;;;;;;;24.47;59.13;100252.63;2061260;28;19918;-61
2021/08/23 01:42:00;;;;;;;;;;;;;;;24.47;59.38;100263.66;2059049;28;19926;-61
2021/08/23 01:43:00;;;;;;;;;;;;;;;24.47;59.33;100266.41;2057704;28;19919;-61
2021/08/23 01:44:00;;;;;;;;;;;;;;;24.46;59.36;100268.31;2059273;28;20830;-62
2021/08/23 01:45:01;;;;;;;;;;;;;;;24.46;59.17;100267.47;2061265;28;19975;-62
2021/08/23 01:46:01;;;;;;;;;;;;;;;24.46;59.28;100262.81;2058807;28;20031;-61
2021/08/23 01:47:02;;;;;;;;;;;;;;;24.46;59.29;100267.47;2059535;28;19922;-62
2021/08/23 01:48:02;;;;;;;;;;;;;;;24.47;59.34;100269.16;2052666;28;19937;-61
2021/08/23 01:49:04;;;;;;;;;;;;;;;24.45;59.36;100263.81;2059999;28;20093;-61
2021/08/23 01:50:04;;;;;;;;;;;;;;;24.45;59.29;100266.56;2056156;28;20012;-62
2021/08/23 01:51:05;;;;;;;;;;;;;;;24.45;59.30;100268.44;2056121;28;19967;-62
2021/08/23 01:52:06;;;;;;;;;;;;;;;24.46;59.30;100261.94;2059061;28;19919;-62
2021/08/23 01:53:06;;;;;;;;;;;;;;;24.46;59.25;100267.47;2054932;28;20371;-62
2021/08/23 01:54:06;;;;;;;;;;;;;;;24.45;59.27;100266.56;2057515;28;19921;-61
2021/08/23 01:55:07;;;;;;;;;;;;;;;24.46;59.45;100275.72;2055444;28;19922;-61
2021/08/23 01:56:07;;;;;;;;;;;;;;;24.45;59.40;100265.69;2059960;28;19920;-61
2021/08/23 01:57:09;;;;;;;;;;;;;;;24.45;59.30;100266.56;2059335;28;19921;-61
2021/08/23 01:58:09;;;;;;;;;;;;;;;24.45;59.27;100272.09;2057121;28;20803;-61
2021/08/23 01:59:10;;;;;;;;;;;;;;;24.45;59.46;100265.69;2057397;28;20297;-62
2021/08/23 02:00:10;;;;;;;;;;;;;;;24.45;59.45;100266.56;2060721;28;19913;-61
2021/08/23 02:01:10;;;;;;;;;;;;;;;24.44;59.35;100264.00;2056740;28;19983;-62
2021/08/23 02:02:11;;;;;;;;;;;;;;;24.44;59.36;100258.47;2056228;28;20050;-62
2021/08/23 02:03:11;;;;;;;;;;;;;;;24.44;59.32;100262.09;2057868;28;20337;-62
2021/08/23 02:04:11;;;;;;;;;;;;;;;24.45;59.39;100265.69;2057688;28;20679;-62
2021/08/23 02:05:12;;;;;;;;;;;;;;;24.45;59.30;100254.66;2057773;28;19922;-61
2021/08/23 02:06:12;;;;;;;;;;;;;;;24.45;59.40;100257.44;2056664;28;19987;-61
2021/08/23 02:07:12;;;;;;;;;;;;;;;24.45;59.29;100265.69;2053932;28;19929;-62
2021/08/23 02:08:13;;;;;;;;;;;;;;;24.46;59.44;100270.22;2056288;28;20012;-62
2021/08/23 02:09:14;;;;;;;;;;;;;;;24.44;59.39;100258.47;2061881;28;19922;-61
2021/08/23 02:10:15;;;;;;;;;;;;;;;24.44;59.28;100270.34;2059493;28;20914;-62
2021/08/23 02:11:15;;;;;;;;;;;;;;;24.45;59.35;100262.94;2060102;28;19956;-61
2021/08/23 02:12:15;;;;;;;;;;;;;;;24.44;59.32;100258.47;2064085;28;19928;-61
2021/08/23 02:13:15;;;;;;;;;;;;;;;24.44;59.32;100255.72;2064301;28;19928;-62
2021/08/23 02:14:16;;;;;;;;;;;;;;;24.44;59.36;100266.75;2063070;28;20419;-62
2021/08/23 02:15:16;;;;;;;;;;;;;;;24.43;59.31;100263.13;2061795;28;20387;-62
2021/08/23 02:16:16;;;;;;;;;;;;;;;24.43;59.32;100268.66;2054424;28;19921;-62
2021/08/23 02:17:17;;;;;;;;;;;;;;;24.44;59.30;100264.00;2056596;28;19921;-62
2021/08/23 02:18:17;;;;;;;;;;;;;;;24.44;59.26;100264.00;2056767;28;19984;-61
2021/08/23 02:19:17;;;;;;;;;;;;;;;24.43;59.35;100263.13;2057558;28;19932;-62
2021/08/23 02:20:18;;;;;;;;;;;;;;;24.43;59.36;100259.53;2058434;28;20009;-61
2021/08/23 02:21:20;;;;;;;;;;;;;;;24.43;59.44;100263.13;2059101;28;19991;-61
2021/08/23 02:22:20;;;;;;;;;;;;;;;24.42;59.40;100266.91;2055638;28;19928;-62
2021/08/23 02:23:20;;;;;;;;;;;;;;;24.43;59.34;100273.31;2067843;28;19955;-61
2021/08/23 02:24:21;;;;;;;;;;;;;;;24.43;59.30;100267.81;2068000;28;19996;-61
2021/08/23 02:25:22;;;;;;;;;;;;;;;24.42;59.33;100266.91;2057628;28;19921;-62
2021/08/23 02:26:22;;;;;;;;;;;;;;;24.42;59.38;100264.16;2054206;28;19928;-62
2021/08/23 02:27:22;;;;;;;;;;;;;;;24.42;59.41;100266.06;2055682;28;19932;-61
2021/08/23 02:28:23;;;;;;;;;;;;;;;24.43;59.31;100267.81;2059827;28;19925;-62
2021/08/23 02:29:23;;;;;;;;;;;;;;;24.43;59.25;100262.28;2055523;28;19921;-61
2021/08/23 02:30:23;;;;;;;;;;;;;;;24.42;59.40;100260.56;2058357;28;20479;-62
2021/08/23 02:31:24;;;;;;;;;;;;;;;24.43;59.33;100267.81;2057484;28;19960;-62
2021/08/23 02:32:24;;;;;;;;;;;;;;;24.42;59.41;100269.66;2057254;28;19924;-62
2021/08/23 02:33:24;;;;;;;;;;;;;;;24.41;59.31;100258.84;2060491;28;19921;-62
2021/08/23 02:34:25;;;;;;;;;;;;;;;24.43;59.40;100262.28;2056137;28;19948;-62
2021/08/23 02:35:25;;;;;;;;;;;;;;;24.41;59.41;100259.69;2059381;28;19921;-61
2021/08/23 02:36:25;;;;;;;;;;;;;;;24.42;59.40;100260.56;2054628;28;19972;-62
2021/08/23 02:37:26;;;;;;;;;;;;;;;24.42;59.45;100260.56;2059190;28;20887;-62
2021/08/23 02:38:27;;;;;;;;;;;;;;;24.41;59.37;100258.84;2055881;28;20625;-61
2021/08/23 02:39:27;;;;;;;;;;;;;;;24.42;59.43;100257.78;2056510;28;19928;-61
2021/08/23 02:40:27;;;;;;;;;;;;;;;24.41;59.30;100258.84;2055022;28;20483;-61
2021/08/23 02:41:27;;;;;;;;;;;;;;;24.42;59.33;100260.56;2056418;28;19971;-62
2021/08/23 02:42:28;;;;;;;;;;;;;;;24.42;59.53;100255.03;2061019;28;19931;-62
2021/08/23 02:43:28;;;;;;;;;;;;;;;24.42;59.25;100255.03;2058013;28;20394;-62
2021/08/23 02:44:28;;;;;;;;;;;;;;;24.42;59.41;100255.03;2054769;28;20563;-61
2021/08/23 02:45:29;;;;;;;;;;;;;;;24.41;59.42;100253.34;2055972;28;20012;-61
2021/08/23 02:46:29;;;;;;;;;;;;;;;24.40;59.38;100255.25;2054822;28;19930;-61
2021/08/23 02:47:29;;;;;;;;;;;;;;;24.41;59.41;100250.59;2058999;28;19932;-61
2021/08/23 02:48:30;;;;;;;;;;;;;;;24.41;59.31;100253.34;2056216;28;19925;-61
2021/08/23 02:49:30;;;;;;;;;;;;;;;24.39;59.43;100251.59;2056511;28;19925;-62
2021/08/23 02:50:30;;;;;;;;;;;;;;;24.39;59.50;100254.34;2054044;28;19929;-62
2021/08/23 02:51:31;;;;;;;;;;;;;;;24.40;59.56;100252.50;2053387;28;19932;-61
2021/08/23 02:52:31;;;;;;;;;;;;;;;24.39;59.56;100257.13;2054961;28;19921;-62
2021/08/23 02:53:31;;;;;;;;;;;;;;;24.39;59.44;100245.25;2055821;28;19928;-61
2021/08/23 02:54:31;;;;;;;;;;;;;;;24.38;59.42;100247.16;2056100;28;19922;-62
2021/08/23 02:55:32;;;;;;;;;;;;;;;24.38;59.48;100244.38;2054447;28;19921;-62
2021/08/23 02:56:32;;;;;;;;;;;;;;;24.38;59.49;100241.63;2055992;28;19922;-62
2021/08/23 02:57:32;;;;;;;;;;;;;;;24.37;59.50;100242.66;2059264;28;20011;-62
2021/08/23 02:58:33;;;;;;;;;;;;;;;24.38;59.43;100238.03;2055874;28;19922;-61
2021/08/23 02:59:33;;;;;;;;;;;;;;;24.38;59.58;100244.38;2054559;28;19920;-62
2021/08/23 03:00:34;;;;;;;;;;;;;;;24.37;59.37;100237.16;2068388;28;20011;-61
2021/08/23 03:01:34;;;;;;;;;;;;;;;24.37;59.50;100234.41;2066763;28;19964;-61
2021/08/23 03:02:34;;;;;;;;;;;;;;;24.37;59.52;100236.28;2058747;28;19922;-62
2021/08/23 03:03:35;;;;;;;;;;;;;;;24.37;59.52;100233.53;2058662;28;19928;-62
2021/08/23 03:04:36;;;;;;;;;;;;;;;24.36;59.39;100234.59;2055398;28;19921;-61
2021/08/23 03:05:36;;;;;;;;;;;;;;;24.37;59.46;100247.31;2057824;28;19928;-62
2021/08/23 03:06:36;;;;;;;;;;;;;;;24.36;59.39;100229.94;2055555;28;19922;-62
2021/08/23 03:07:37;;;;;;;;;;;;;;;24.38;59.51;100229.75;2058873;28;20001;-62
2021/08/23 03:08:37;;;;;;;;;;;;;;;24.37;59.46;100230.78;2055934;28;19976;-61
2021/08/23 03:09:37;;;;;;;;;;;;;;;24.36;59.46;100234.59;2060294;28;19964;-62
2021/08/23 03:10:38;;;;;;;;;;;;;;;24.36;59.46;100229.94;2057470;28;20484;-62
2021/08/23 03:11:38;;;;;;;;;;;;;;;24.36;59.49;100232.69;2059241;28;19913;-62
2021/08/23 03:12:38;;;;;;;;;;;;;;;24.36;59.45;100227.19;2058149;28;19991;-61
2021/08/23 03:13:39;;;;;;;;;;;;;;;24.36;59.43;100231.84;2052093;28;19926;-62
2021/08/23 03:14:39;;;;;;;;;;;;;;;24.36;59.38;100224.41;2056055;28;19917;-62
2021/08/23 03:15:40;;;;;;;;;;;;;;;24.36;59.51;100227.19;2060399;28;20297;-62
2021/08/23 03:16:40;;;;;;;;;;;;;;;24.35;59.49;100228.22;2056651;28;19960;-62
2021/08/23 03:17:40;;;;;;;;;;;;;;;24.36;59.30;100223.56;2056466;28;19952;-62
2021/08/23 03:18:41;;;;;;;;;;;;;;;24.36;59.30;100223.56;2055257;28;19925;-61
2021/08/23 03:19:41;;;;;;;;;;;;;;;24.34;59.46;100221.00;2057561;28;20331;-62
2021/08/23 03:20:41;;;;;;;;;;;;;;;24.35;59.50;100225.47;2058893;28;19929;-62
2021/08/23 03:21:42;;;;;;;;;;;;;;;24.35;59.43;100231.00;2054738;28;20723;-62
2021/08/23 03:22:42;;;;;;;;;;;;;;;24.36;59.42;100232.69;2054305;28;19928;-62
2021/08/23 03:23:42;;;;;;;;;;;;;;;24.37;59.45;100225.28;2054224;28;20020;-62
2021/08/23 03:24:43;;;;;;;;;;;;;;;24.35;59.40;100228.22;2052282;28;19922;-62
2021/08/23 03:25:43;;;;;;;;;;;;;;;24.34;59.47;100226.50;2054553;28;19928;-62
2021/08/23 03:26:44;;;;;;;;;;;;;;;24.36;59.46;100227.19;2053854;28;19929;-62
2021/08/23 03:27:44;;;;;;;;;;;;;;;24.36;59.44;100227.19;2054867;28;19925;-61
2021/08/23 03:28:44;;;;;;;;;;;;;;;24.35;59.27;100228.22;2055995;28;19928;-62
2021/08/23 03:29:50;;;;;;;;;;;;;;;24.36;59.22;100229.94;2052634;28;19947;-62
2021/08/23 03:30:50;;;;;;;;;;;;;;;24.35;59.38;100231.00;2054770;28;19929;-62
2021/08/23 03:31:51;;;;;;;;;;;;;;;24.35;59.31;100231.00;2055364;28;19921;-61
2021/08/23 03:32:51;;;;;;;;;;;;;;;24.35;59.31;100233.75;2066242;28;19921;-60
2021/08/23 03:33:51;;;;;;;;;;;;;;;24.35;59.38;100239.25;2065321;28;19921;-62
2021/08/23 03:34:51;;;;;;;;;;;;;;;24.35;59.32;100222.72;2057081;28;19948;-62
2021/08/23 03:35:52;;;;;;;;;;;;;;;24.35;59.37;100228.22;2059889;28;19928;-61
2021/08/23 03:36:52;;;;;;;;;;;;;;;24.36;59.38;100229.94;2054413;28;20393;-62
2021/08/23 03:37:52;;;;;;;;;;;;;;;24.34;59.34;100226.50;2060417;28;19922;-59
2021/08/23 03:38:53;;;;;;;;;;;;;;;24.35;59.25;100227.34;2056043;28;19921;-60
2021/08/23 03:39:53;;;;;;;;;;;;;;;24.34;59.38;100226.50;2057963;28;19921;-60
2021/08/23 03:40:53;;;;;;;;;;;;;;;24.34;59.60;100226.50;2055959;28;19921;-61
2021/08/23 03:41:54;;;;;;;;;;;;;;;24.34;59.36;100226.50;2054981;28;20316;-61
2021/08/23 03:42:54;;;;;;;;;;;;;;;24.34;59.47;100225.66;2054255;28;19913;-60
2021/08/23 03:43:55;;;;;;;;;;;;;;;24.34;59.41;100226.50;2058538;28;19948;-60
2021/08/23 03:44:55;;;;;;;;;;;;;;;24.34;59.34;100226.50;2057917;28;19957;-61
2021/08/23 03:45:55;;;;;;;;;;;;;;;24.35;59.35;100222.72;2056066;28;20597;-61
2021/08/23 03:46:56;;;;;;;;;;;;;;;24.34;59.40;100215.47;2053813;28;20385;-61
2021/08/23 03:47:56;;;;;;;;;;;;;;;24.34;59.38;100226.50;2055487;28;19939;-61
2021/08/23 03:48:56;;;;;;;;;;;;;;;24.32;59.29;100217.56;2059857;28;19929;-61
2021/08/23 03:49:57;;;;;;;;;;;;;;;24.33;59.47;100219.28;2057902;28;20445;-61
2021/08/23 03:50:57;;;;;;;;;;;;;;;24.34;59.32;100221.00;2059060;28;20466;-60
2021/08/23 03:51:57;;;;;;;;;;;;;;;24.34;59.43;100223.75;2054934;28;19922;-60
2021/08/23 03:52:57;;;;;;;;;;;;;;;24.32;59.48;100214.78;2057260;28;19921;-62
2021/08/23 03:53:58;;;;;;;;;;;;;;;24.33;59.26;100219.28;2060406;28;19921;-60
2021/08/23 03:54:58;;;;;;;;;;;;;;;24.33;59.39;100213.78;2058851;28;19929;-61
2021/08/23 03:55:59;;;;;;;;;;;;;;;24.32;59.33;100212.03;2056701;28;19922;-60
2021/08/23 03:56:59;;;;;;;;;;;;;;;24.33;59.45;100213.78;2053373;28;19921;-61
2021/08/23 03:57:59;;;;;;;;;;;;;;;24.32;59.42;100206.53;2053729;28;20061;-60
2021/08/23 03:58:59;;;;;;;;;;;;;;;24.32;59.41;100212.03;2053485;28;19921;-60
2021/08/23 04:00:00;;;;;;;;;;;;;;;24.33;59.38;100212.94;2053750;28;19921;-60
2021/08/23 04:01:00;;;;;;;;;;;;;;;24.32;59.39;100216.69;2058993;28;19975;-61
2021/08/23 04:02:00;;;;;;;;;;;;;;;24.31;59.41;100215.84;2057230;28;19952;-60
2021/08/23 04:03:01;;;;;;;;;;;;;;;24.31;59.42;100207.59;2057411;28;19928;-61
2021/08/23 04:04:01;;;;;;;;;;;;;;;24.32;59.24;100212.03;2056580;28;19961;-61
2021/08/23 04:05:01;;;;;;;;;;;;;;;24.32;59.48;100211.19;2055008;28;20459;-60
2021/08/23 04:06:02;;;;;;;;;;;;;;;24.31;59.40;100210.34;2061506;28;20596;-60
2021/08/23 04:07:02;;;;;;;;;;;;;;;24.31;59.51;100210.34;2070017;28;19928;-61
2021/08/23 04:08:02;;;;;;;;;;;;;;;24.31;59.39;100218.59;2057288;28;19972;-61
2021/08/23 04:09:03;;;;;;;;;;;;;;;24.31;59.52;100217.75;2055251;28;19921;-61
2021/08/23 04:10:04;;;;;;;;;;;;;;;24.31;59.26;100220.50;2072733;28;19931;-60
2021/08/23 04:11:05;;;;;;;;;;;;;;;24.32;59.57;100214.78;2073912;28;20260;-61
2021/08/23 04:12:05;;;;;;;;;;;;;;;24.31;59.38;100215.84;2068413;28;19917;-62
2021/08/23 04:13:06;;;;;;;;;;;;;;;24.32;59.37;100217.56;2068855;28;19971;-62
2021/08/23 04:14:06;;;;;;;;;;;;;;;24.31;59.33;100221.34;2057425;28;19921;-61
2021/08/23 04:15:07;;;;;;;;;;;;;;;24.31;59.51;100218.59;2058011;28;20719;-62
2021/08/23 04:16:14;;;;;;;;;;;;;;;24.30;59.30;100213.25;2062078;28;19917;-62
2021/08/23 04:17:14;;;;;;;;;;;;;;;24.30;59.41;100213.25;2060192;28;20247;-61
2021/08/23 04:18:14;;;;;;;;;;;;;;;24.29;59.51;100209.66;2054279;28;19944;-62
2021/08/23 04:19:15;;;;;;;;;;;;;;;24.29;59.52;100208.81;2058736;28;19920;-62
2021/08/23 04:20:15;;;;;;;;;;;;;;;24.29;59.65;100217.91;2058931;28;19929;-61
2021/08/23 04:21:15;;;;;;;;;;;;;;;24.28;59.52;100221.72;2059459;28;20445;-61
2021/08/23 04:22:16;;;;;;;;;;;;;;;24.29;59.59;100217.06;2057049;28;20443;-61
2021/08/23 04:23:16;;;;;;;;;;;;;;;24.28;59.43;100215.38;2056963;28;19945;-61
2021/08/23 04:24:16;;;;;;;;;;;;;;;24.28;59.57;100216.22;2057141;28;19918;-61
2021/08/23 04:25:16;;;;;;;;;;;;;;;24.27;59.43;100214.47;2061434;28;20092;-61
2021/08/23 04:26:17;;;;;;;;;;;;;;;24.27;59.52;100220.00;2061016;28;19971;-61
2021/08/23 04:27:17;;;;;;;;;;;;;;;24.27;59.52;100220.00;2059705;28;20052;-61
2021/08/23 04:28:18;;;;;;;;;;;;;;;24.25;59.45;100216.56;2062628;28;19976;-61
2021/08/23 04:29:19;;;;;;;;;;;;;;;24.26;59.60;100222.94;2057412;28;19980;-61
2021/08/23 04:30:19;;;;;;;;;;;;;;;24.26;59.47;100221.06;2058294;28;19933;-61
2021/08/23 04:31:20;;;;;;;;;;;;;;;24.26;59.59;100223.81;2070190;28;20422;-61
2021/08/23 04:32:20;;;;;;;;;;;;;;;24.26;59.42;100218.28;2078184;28;20295;-61
2021/08/23 04:33:22;;;;;;;;;;;;;;;24.26;59.52;100223.81;2055043;28;19925;-61
2021/08/23 04:34:22;;;;;;;;;;;;;;;24.26;59.56;100212.78;2059809;28;19921;-61
2021/08/23 04:35:22;;;;;;;;;;;;;;;24.26;59.55;100218.28;2060477;28;19940;-61
2021/08/23 04:36:23;;;;;;;;;;;;;;;24.26;59.66;100215.53;2061730;28;20613;-62
2021/08/23 04:37:23;;;;;;;;;;;;;;;24.25;59.62;100211.06;2058692;28;19952;-62
2021/08/23 04:38:23;;;;;;;;;;;;;;;24.24;59.52;100214.84;2058682;28;20040;-61
2021/08/23 04:39:24;;;;;;;;;;;;;;;24.24;59.53;100212.09;2061673;28;19921;-61
2021/08/23 04:40:24;;;;;;;;;;;;;;;24.24;59.53;100209.34;2063292;28;19979;-62
2021/08/23 04:41:24;;;;;;;;;;;;;;;24.24;59.62;100214.00;2058059;28;20215;-61
2021/08/23 04:42:25;;;;;;;;;;;;;;;24.23;59.51;100209.50;2055041;28;20744;-61
2021/08/23 04:43:25;;;;;;;;;;;;;;;24.23;59.64;100215.91;2053541;28;20862;-62
2021/08/23 04:44:25;;;;;;;;;;;;;;;24.24;59.60;100214.84;2059840;28;19952;-61
2021/08/23 04:45:25;;;;;;;;;;;;;;;24.23;59.44;100215.03;2056064;28;20168;-61
2021/08/23 04:46:26;;;;;;;;;;;;;;;24.23;59.48;100215.91;2057051;28;20124;-61
2021/08/23 04:47:26;;;;;;;;;;;;;;;24.23;59.53;100215.91;2053728;28;20275;-62
2021/08/23 04:48:26;;;;;;;;;;;;;;;24.23;59.53;100224.16;2057968;28;19914;-61
2021/08/23 04:49:27;;;;;;;;;;;;;;;24.23;59.54;100221.41;2056909;28;20167;-61
2021/08/23 04:50:27;;;;;;;;;;;;;;;24.22;59.51;100225.19;2059651;28;19940;-61
2021/08/23 04:51:28;;;;;;;;;;;;;;;24.22;59.50;100222.44;2056445;28;19953;-61
2021/08/23 04:52:28;;;;;;;;;;;;;;;24.23;59.52;100228.78;2056242;28;19914;-62
2021/08/23 04:53:29;;;;;;;;;;;;;;;24.23;59.53;100229.69;2059100;28;19961;-62
2021/08/23 04:54:29;;;;;;;;;;;;;;;24.23;59.62;100226.03;2074958;28;19913;-62
2021/08/23 04:55:29;;;;;;;;;;;;;;;24.22;59.50;100227.09;2071072;28;19951;-62
2021/08/23 04:56:29;;;;;;;;;;;;;;;24.21;59.53;100226.25;2058177;28;19951;-62
2021/08/23 04:57:30;;;;;;;;;;;;;;;24.22;59.48;100230.69;2060876;28;19929;-62
2021/08/23 04:58:30;;;;;;;;;;;;;;;24.23;59.63;100228.78;2057058;28;19921;-61
2021/08/23 04:59:30;;;;;;;;;;;;;;;24.22;59.58;100233.44;2056131;28;19917;-62
2021/08/23 05:00:31;;;;;;;;;;;;;;;24.22;59.52;100227.94;2057030;28;19956;-62
2021/08/23 05:01:31;;;;;;;;;;;;;;;24.22;59.58;100227.94;2068881;28;20284;-62
2021/08/23 05:02:31;;;;;;;;;;;;;;;24.22;59.57;100233.44;2066333;28;19921;-62
2021/08/23 05:03:31;;;;;;;;;;;;;;;24.22;59.48;100222.44;2058269;28;20004;-62
2021/08/23 05:04:32;;;;;;;;;;;;;;;24.21;59.53;100223.50;2072065;28;19921;-62
2021/08/23 05:05:32;;;;;;;;;;;;;;;24.20;59.60;100230.00;2069252;28;20462;-62
2021/08/23 05:06:32;;;;;;;;;;;;;;;24.22;59.63;100227.94;2054575;28;20685;-61
2021/08/23 05:07:33;;;;;;;;;;;;;;;24.23;59.49;100226.94;2055089;28;19967;-66
2021/08/23 05:08:33;;;;;;;;;;;;;;;24.24;59.52;100225.88;2055833;28;20039;-65
2021/08/23 05:09:33;;;;;;;;;;;;;;;24.24;59.41;100227.78;2057983;28;19960;-66
2021/08/23 05:10:34;;;;;;;;;;;;;;;24.24;59.45;100231.38;2054842;28;19922;-65
2021/08/23 05:11:36;;;;;;;;;;;;;;;24.26;59.42;100225.72;2070943;28;19929;-65